Time;durP1;ratioP1;P1;durP2;ratioP2;P2;SDS_P1;SDS_P2;PMS_P1;PMS_P2;Temp;Humidity;BMP_temperature;BMP_pressure;BME280_temperature;BME280_humidity;BME280_pressure;Samples;Min_cycle;Max_cycle;Signal;HPM_P1;HPM_P2
2022/05/15 00:02:18;;;;;;;19.05;8.93;;;10.80;99.90;;;;;;5075896;28;20048;-61
2022/05/15 00:04:44;;;;;;;21.85;9.40;;;;;;;;;;5075254;28;20099;-61
2022/05/15 00:07:10;;;;;;;22.50;9.48;;;;;;;;;;5040718;28;20401;-61
2022/05/15 00:09:36;;;;;;;20.00;9.50;;;;;;;;;;5076114;28;20036;-61
2022/05/15 00:12:03;;;;;;;19.55;9.48;;;;;;;;;;5056462;28;20098;-61
2022/05/15 00:14:29;;;;;;;22.88;9.55;;;;;;;;;;5057897;28;20389;-61
2022/05/15 00:16:55;;;;;;;22.45;10.20;;;;;;;;;;5075215;28;20036;-61
2022/05/15 00:19:21;;;;;;;24.15;10.38;;;;;;;;;;5074252;28;20513;-61
2022/05/15 00:21:47;;;;;;;25.67;10.13;;;;;;;;;;5075185;28;20080;-61
2022/05/15 00:24:13;;;;;;;28.02;10.98;;;;;;;;;;5074868;28;20036;-61
2022/05/15 00:26:39;;;;;;;24.45;10.95;;;;;;;;;;5074530;28;20549;-61
2022/05/15 00:29:05;;;;;;;23.95;9.48;;;;;;;;;;5074826;28;20079;-61
2022/05/15 00:31:32;;;;;;;18.92;10.20;;;;;;;;;;5040505;28;20086;-61
2022/05/15 00:33:58;;;;;;;21.38;9.40;;;;;;;;;;5057448;28;20124;-61
2022/05/15 00:36:24;;;;;;;29.25;10.15;;;;;;;;;;5074783;28;20040;-61
2022/05/15 00:38:50;;;;;;;21.85;9.95;;;;;;;;;;5074166;28;20123;-61
2022/05/15 00:41:16;;;;;;;20.25;10.23;;;;;;;;;;5056829;28;20477;-61
2022/05/15 00:43:50;;;;;;;22.75;10.23;;;;;;;;;;5074994;28;20119;-61
2022/05/15 00:46:18;;;;;;;23.73;9.77;;;;;;;;;;5074205;28;20115;-61
2022/05/15 00:48:44;;;;;;;18.83;8.23;;;;;;;;;;5074932;28;20032;-61
2022/05/15 00:51:32;;;;;;;25.02;9.63;;;;;;;;;;5074153;28;20041;-61
2022/05/15 00:54:01;;;;;;;20.88;8.45;;;;;;;;;;5055997;28;20047;-61
2022/05/15 00:56:28;;;;;;;26.20;7.90;;;;;;;;;;5074520;28;20051;-61
2022/05/15 00:58:57;;;;;;;20.95;7.93;;;;;;;;;;5057181;28;20048;-61
2022/05/15 01:01:23;;;;;;;13.35;7.03;;;10.30;99.90;;;;;;5072416;28;20519;-61
2022/05/15 01:03:48;;;;;;;20.10;7.57;;;10.60;99.90;;;;;;5056303;28;20115;-61
2022/05/15 01:06:14;;;;;;;20.40;7.20;;;;;;;;;;5039858;28;20123;-61
2022/05/15 01:08:40;;;;;;;21.88;8.27;;;9.90;99.90;;;;;;5073733;28;20478;-61
2022/05/15 01:11:11;;;;;;;16.95;6.88;;;10.00;99.90;;;;;;5056001;28;20048;-61
2022/05/15 01:13:40;;;;;;;13.13;6.63;;;9.90;99.90;;;;;;5074438;28;20041;-61
2022/05/15 01:16:06;;;;;;;17.58;7.60;;;9.80;99.90;;;;;;5072782;28;20481;-61
2022/05/15 01:18:34;;;;;;;14.95;7.25;;;9.80;99.90;;;;;;5056156;28;20075;-61
2022/05/15 01:21:16;;;;;;;14.77;6.10;;;9.70;99.90;;;;;;5072870;28;20057;-61
2022/05/15 01:23:42;;;;;;;14.45;7.13;;;9.60;99.90;;;;;;5056531;28;20045;-61
2022/05/15 01:26:07;;;;;;;19.92;8.05;;;9.70;99.90;;;;;;5055960;28;20435;-61
2022/05/15 01:28:33;;;;;;;13.63;6.43;;;9.70;99.90;;;;;;5073713;28;20094;-61
2022/05/15 01:30:59;;;;;;;16.35;6.85;;;9.70;99.90;;;;;;5073604;28;20041;-61
2022/05/15 01:33:25;;;;;;;22.83;8.32;;;9.60;99.90;;;;;;5073916;28;20075;-62
2022/05/15 01:35:51;;;;;;;19.98;9.20;;;9.70;99.90;;;;;;5072865;28;20036;-61
2022/05/15 01:38:18;;;;;;;20.85;7.88;;;9.70;99.90;;;;;;5073696;28;20455;-61
2022/05/15 01:40:44;;;;;;;18.55;8.80;;;9.70;99.90;;;;;;5056311;28;20032;-61
2022/05/15 01:43:10;;;;;;;21.77;9.95;;;9.70;99.90;;;;;;5072674;28;20121;-60
2022/05/15 01:45:36;;;;;;;16.55;7.82;;;9.70;99.90;;;;;;5073773;28;20090;-61
2022/05/15 01:48:02;;;;;;;19.20;8.57;;;9.80;99.90;;;;;;5073702;28;20037;-60
2022/05/15 01:50:28;;;;;;;21.58;8.77;;;;;;;;;;5054837;28;20032;-61
2022/05/15 01:52:54;;;;;;;21.73;10.02;;;9.80;99.90;;;;;;5055719;28;20123;-61
2022/05/15 01:55:20;;;;;;;22.42;9.35;;;9.80;99.90;;;;;;5073600;28;20041;-61
2022/05/15 01:57:46;;;;;;;27.00;10.38;;;9.80;99.90;;;;;;5055215;28;20402;-61
2022/05/15 02:00:23;;;;;;;23.35;9.07;;;9.80;99.90;;;;;;5038066;28;20051;-61
2022/05/15 02:02:49;;;;;;;19.92;9.15;;;9.70;99.90;;;;;;5073402;28;20453;-61
2022/05/15 02:05:17;;;;;;;20.33;8.30;;;9.70;99.90;;;;;;5072640;28;20111;-61
2022/05/15 02:07:43;;;;;;;16.92;8.10;;;9.80;99.90;;;;;;5073495;28;20119;-61
2022/05/15 02:10:10;;;;;;;21.27;9.50;;;9.90;99.90;;;;;;5054276;28;20048;-61
2022/05/15 02:12:36;;;;;;;23.20;9.80;;;;;;;;;;5072930;28;20024;-61
2022/05/15 02:15:03;;;;;;;24.85;9.52;;;9.70;99.90;;;;;;5055459;28;20492;-61
2022/05/15 02:17:29;;;;;;;18.55;9.55;;;9.70;99.90;;;;;;5054476;28;20047;-61
2022/05/15 02:19:54;;;;;;;15.85;7.82;;;9.70;99.90;;;;;;5072599;28;20059;-61
2022/05/15 02:22:20;;;;;;;19.35;8.23;;;9.70;99.90;;;;;;5055184;28;20048;-61
2022/05/15 02:24:46;;;;;;;22.88;7.72;;;9.60;99.90;;;;;;5072548;28;20041;-61
2022/05/15 02:27:11;;;;;;;17.52;8.40;;;9.60;99.90;;;;;;5054324;28;20047;-60
2022/05/15 02:29:38;;;;;;;17.10;8.05;;;9.60;99.90;;;;;;5073099;28;20028;-60
2022/05/15 02:32:04;;;;;;;18.25;8.27;;;9.50;99.90;;;;;;5071990;28;20086;-61
2022/05/15 02:34:30;;;;;;;16.35;7.95;;;9.10;99.90;;;;;;5072673;28;20111;-60
2022/05/15 02:36:56;;;;;;;16.23;7.43;;;9.40;99.90;;;;;;5054726;28;20528;-60
2022/05/15 02:39:22;;;;;;;21.05;7.88;;;9.40;99.90;;;;;;5053939;28;20076;-61
2022/05/15 02:41:47;;;;;;;15.23;7.35;;;9.30;99.90;;;;;;5037754;28;20158;-61
2022/05/15 02:44:13;;;;;;;14.68;6.75;;;9.30;99.90;;;;;;5054366;28;20124;-61
2022/05/15 02:46:39;;;;;;;16.90;7.30;;;9.20;99.90;;;;;;5071936;28;20446;-61
2022/05/15 02:51:48;;;;;;;21.65;7.22;;;9.10;99.90;;;;;;5053198;28;20098;-61
2022/05/15 02:54:14;;;;;;;17.85;6.72;;;9.10;99.90;;;;;;5071057;28;20440;-61
2022/05/15 02:56:40;;;;;;;15.00;6.40;;;9.10;99.90;;;;;;5072927;28;20040;-60
2022/05/15 02:59:07;;;;;;;16.13;6.40;;;9.00;99.90;;;;;;5071469;28;20055;-61
2022/05/15 03:01:37;;;;;;;13.48;6.57;;;9.00;99.90;;;;;;5054147;28;20086;-60
2022/05/15 03:04:04;;;;;;;20.77;8.20;;;9.00;99.90;;;;;;5037709;28;20040;-61
2022/05/15 03:06:31;;;;;;;11.88;7.22;;;9.00;99.90;;;;;;5071506;28;20041;-61
2022/05/15 03:08:57;;;;;;;14.82;5.93;;;9.00;99.90;;;;;;5054295;28;20040;-61
2022/05/15 03:11:23;;;;;;;16.23;7.22;;;8.90;99.90;;;;;;5072009;28;20131;-60
2022/05/15 03:13:49;;;;;;;18.65;8.05;;;8.90;99.90;;;;;;5071264;28;20493;-61
2022/05/15 03:16:18;;;;;;;17.45;6.10;;;8.90;99.90;;;;;;5072266;28;20052;-61
2022/05/15 03:18:49;;;;;;;15.20;6.18;;;8.90;99.90;;;;;;5072358;28;20036;-61
2022/05/15 03:21:28;;;;;;;14.40;6.75;;;8.90;99.90;;;;;;5070958;28;20056;-61
2022/05/15 03:24:04;;;;;;;15.35;7.00;;;8.80;99.90;;;;;;5071415;28;20055;-61
2022/05/15 03:26:32;;;;;;;19.85;7.60;;;8.90;99.90;;;;;;5037521;28;20036;-61
2022/05/15 03:28:58;;;;;;;17.38;8.20;;;8.80;99.90;;;;;;5053274;28;20076;-61
2022/05/15 03:31:23;;;;;;;19.60;7.95;;;8.80;99.90;;;;;;5071987;28;20144;-61
2022/05/15 03:33:49;;;;;;;18.15;8.40;;;8.80;99.90;;;;;;5053832;28;20600;-61
2022/05/15 03:36:16;;;;;;;19.52;8.30;;;8.80;99.90;;;;;;5053178;28;20048;-61
2022/05/15 03:38:44;;;;;;;19.33;9.27;;;8.90;99.90;;;;;;5072074;28;20093;-61
2022/05/15 03:41:10;;;;;;;21.77;8.85;;;8.90;99.90;;;;;;5053910;28;20063;-61
2022/05/15 03:43:36;;;;;;;21.15;7.93;;;8.90;99.90;;;;;;5071293;28;20040;-61
2022/05/15 03:46:04;;;;;;;17.08;7.60;;;8.90;99.90;;;;;;5053847;28;20040;-61
2022/05/15 03:48:30;;;;;;;13.52;7.28;;;8.90;99.90;;;;;;5071147;28;20107;-61
2022/05/15 03:50:56;;;;;;;24.55;8.73;;;8.90;99.90;;;;;;5071579;28;20529;-61
2022/05/15 03:53:21;;;;;;;20.13;9.48;;;8.90;99.90;;;;;;5071887;28;20047;-61
2022/05/15 03:55:47;;;;;;;23.52;8.57;;;8.90;99.90;;;;;;5071406;28;20514;-61
2022/05/15 03:58:13;;;;;;;21.65;8.55;;;8.90;99.90;;;;;;5071213;28;20512;-61
2022/05/15 04:00:38;;;;;;;24.60;9.38;;;8.90;99.90;;;;;;5054060;28;20048;-60
2022/05/15 04:03:04;;;;;;;28.25;9.73;;;9.50;99.90;;;;;;5052737;28;20049;-61
2022/05/15 04:05:30;;;;;;;19.13;8.30;;;8.90;99.90;;;;;;5037211;28;20317;-61
2022/05/15 04:07:58;;;;;;;21.30;9.32;;;9.00;99.90;;;;;;5071665;28;20159;-60
2022/05/15 04:10:25;;;;;;;19.90;8.63;;;9.00;99.90;;;;;;5070903;28;20040;-60
2022/05/15 04:12:50;;;;;;;23.50;8.02;;;9.10;99.90;;;;;;5037064;28;20067;-61
2022/05/15 04:15:16;;;;;;;23.95;9.45;;;9.10;99.90;;;;;;5071565;28;20091;-60
2022/05/15 04:17:44;;;;;;;23.60;9.70;;;9.10;99.90;;;;;;5052936;28;20052;-61
2022/05/15 04:20:11;;;;;;;18.98;9.55;;;9.20;99.90;;;;;;5071118;28;20057;-61
2022/05/15 04:22:37;;;;;;;37.03;10.77;;;9.20;99.90;;;;;;5053668;28;20048;-61
2022/05/15 04:25:04;;;;;;;22.90;9.45;;;9.30;99.90;;;;;;5070634;28;20044;-60
2022/05/15 04:27:29;;;;;;;24.90;9.50;;;9.30;99.90;;;;;;5053444;28;20044;-61
2022/05/15 04:29:55;;;;;;;21.00;9.18;;;9.40;99.90;;;;;;5053765;28;20393;-61
2022/05/15 04:32:26;;;;;;;33.95;11.80;;;9.40;99.90;;;;;;5052317;28;20048;-60
2022/05/15 04:34:52;;;;;;;27.63;10.60;;;9.50;99.90;;;;;;5054188;28;20481;-61
2022/05/15 04:37:17;;;;;;;24.63;12.00;;;9.50;99.90;;;;;;5075169;28;20131;-60
2022/05/15 04:39:43;;;;;;;26.48;9.88;;;9.50;99.90;;;;;;5074696;28;20041;-61
2022/05/15 04:42:09;;;;;;;25.15;9.10;;;9.60;99.90;;;;;;5056807;28;20044;-60
2022/05/15 04:44:35;;;;;;;23.77;9.18;;;9.60;99.90;;;;;;5057224;28;20040;-60
2022/05/15 04:47:00;;;;;;;19.30;8.75;;;9.60;99.90;;;;;;5056322;28;20040;-60
2022/05/15 04:49:26;;;;;;;28.77;9.60;;;9.70;99.90;;;;;;5074782;28;20043;-60
2022/05/15 04:51:51;;;;;;;19.80;8.25;;;9.70;99.90;;;;;;5073895;28;20042;-61
2022/05/15 04:54:17;;;;;;;21.45;8.40;;;9.80;99.90;;;;;;5056815;28;20044;-61
2022/05/15 04:56:43;;;;;;;20.73;7.75;;;9.80;99.90;;;;;;5075058;28;20036;-61
2022/05/15 04:59:09;;;;;;;31.80;8.48;;;9.80;99.90;;;;;;5073615;28;20504;-61
2022/05/15 05:01:34;;;;;;;22.33;8.30;;;9.90;99.90;;;;;;5074662;28;20040;-60
2022/05/15 05:04:00;;;;;;;28.63;8.52;;;10.00;99.90;;;;;;5074405;28;20086;-61
2022/05/15 05:06:27;;;;;;;24.95;9.48;;;10.30;99.90;;;;;;5055888;28;20558;-61
2022/05/15 05:08:53;;;;;;;18.60;7.55;;;10.10;99.90;;;;;;5056532;28;20068;-60
2022/05/15 05:11:19;;;;;;;23.70;9.15;;;10.20;99.90;;;;;;5074336;28;20047;-61
2022/05/15 05:13:45;;;;;;;16.88;8.55;;;10.30;99.90;;;;;;5073989;28;20037;-61
2022/05/15 05:16:11;;;;;;;25.13;8.70;;;10.40;99.90;;;;;;5056237;28;20033;-61
2022/05/15 05:18:36;;;;;;;24.45;9.18;;;10.40;99.90;;;;;;5074427;28;20076;-61
2022/05/15 05:21:03;;;;;;;22.10;7.80;;;10.50;99.90;;;;;;5055371;28;20134;-61
2022/05/15 05:23:29;;;;;;;20.50;8.20;;;10.60;99.90;;;;;;5056305;28;20119;-61
2022/05/15 05:25:54;;;;;;;22.77;8.70;;;10.80;99.90;;;;;;5074241;28;20047;-61
2022/05/15 05:28:20;;;;;;;22.45;8.75;;;10.90;99.90;;;;;;5038958;28;20040;-61
2022/05/15 05:30:46;;;;;;;27.00;9.35;;;11.00;99.90;;;;;;5056336;28;20047;-61
2022/05/15 05:33:11;;;;;;;27.27;9.40;;;11.10;99.90;;;;;;5055822;28;20430;-61
2022/05/15 05:35:37;;;;;;;24.23;8.68;;;11.20;99.90;;;;;;5073558;28;20489;-61
2022/05/15 05:38:04;;;;;;;23.08;8.05;;;11.20;99.90;;;;;;5056153;28;20083;-61
2022/05/15 05:40:30;;;;;;;22.83;8.23;;;11.40;99.90;;;;;;5056131;28;20041;-61
2022/05/15 05:42:56;;;;;;;20.30;6.90;;;11.50;99.90;;;;;;5072887;28;20040;-61
2022/05/15 05:45:22;;;;;;;19.75;7.78;;;11.60;99.90;;;;;;5073721;28;20035;-61
2022/05/15 05:47:49;;;;;;;22.85;8.45;;;11.80;99.90;;;;;;5073288;28;20107;-61
2022/05/15 05:50:17;;;;;;;23.40;8.18;;;11.90;99.90;;;;;;5072967;28;20093;-61
2022/05/15 05:52:43;;;;;;;19.85;8.07;;;12.40;99.90;;;;;;5056226;28;20037;-61
2022/05/15 05:55:12;;;;;;;22.27;8.07;;;11.80;99.90;;;;;;5054791;28;20370;-61
2022/05/15 05:57:38;;;;;;;20.33;7.20;;;12.30;99.90;;;;;;5073805;28;20091;-61
2022/05/15 06:00:06;;;;;;;19.05;8.05;;;12.40;99.90;;;;;;5055505;28;20040;-61
2022/05/15 06:02:32;;;;;;;22.95;8.00;;;12.40;99.90;;;;;;5055045;28;20692;-61
2022/05/15 06:04:57;;;;;;;27.05;7.97;;;12.90;99.90;;;;;;5038883;28;20346;-61
2022/05/15 06:07:27;;;;;;;17.90;7.43;;;12.70;99.90;;;;;;5073178;28;20044;-61
2022/05/15 06:09:54;;;;;;;21.30;6.85;;;12.60;99.90;;;;;;5071652;28;20121;-61
2022/05/15 06:12:22;;;;;;;24.10;6.95;;;12.70;99.90;;;;;;5067832;28;20039;-61
2022/05/15 06:14:49;;;;;;;20.77;7.57;;;;;;;;;;5072859;28;20044;-61
2022/05/15 06:17:19;;;;;;;20.25;8.02;;;12.90;99.90;;;;;;5054321;28;20051;-61
2022/05/15 06:19:45;;;;;;;20.25;6.53;;;;;;;;;;5072973;28;20131;-61
2022/05/15 06:22:10;;;;;;;21.50;7.90;;;13.00;99.90;;;;;;5072288;28;20517;-61
2022/05/15 06:24:36;;;;;;;23.02;7.60;;;13.10;99.90;;;;;;5072243;28;20127;-61
2022/05/15 06:27:03;;;;;;;26.83;7.80;;;13.00;99.90;;;;;;5072738;28;20028;-61
2022/05/15 06:29:29;;;;;;;20.23;7.32;;;13.20;99.90;;;;;;5072639;28;20115;-61
2022/05/15 06:31:55;;;;;;;24.15;8.32;;;;;;;;;;5039800;28;20443;-61
2022/05/15 06:34:21;;;;;;;17.85;6.45;;;;;;;;;;5023202;28;20037;-61
2022/05/15 06:36:48;;;;;;;20.50;7.18;;;;;;;;;;5070332;28;20059;-61
2022/05/15 06:39:14;;;;;;;19.02;6.35;;;;;;;;;;5069041;28;20039;-61
2022/05/15 06:41:40;;;;;;;18.42;6.43;;;;;;;;;;5070104;28;20448;-61
2022/05/15 06:44:06;;;;;;;20.20;7.25;;;;;;;;;;5051228;28;20106;-61
2022/05/15 06:46:32;;;;;;;18.20;5.85;;;;;;;;;;5051430;28;20493;-61
2022/05/15 06:48:58;;;;;;;21.38;7.55;;;14.00;99.90;;;;;;5067940;28;20220;-61
2022/05/15 06:51:24;;;;;;;22.08;7.90;;;14.00;99.90;;;;;;5051357;28;20083;-61
2022/05/15 06:53:50;;;;;;;19.58;5.97;;;14.10;99.90;;;;;;5051795;28;20064;-61
2022/05/15 06:59:02;;;;;;;15.55;5.13;;;14.40;99.90;;;;;;5068236;28;20062;-61
2022/05/15 07:01:29;;;;;;;22.08;6.18;;;14.20;99.90;;;;;;5050689;28;20044;-61
2022/05/15 07:03:54;;;;;;;21.50;7.40;;;14.30;99.90;;;;;;5065978;28;20040;-61
2022/05/15 07:06:20;;;;;;;23.15;7.00;;;14.50;99.90;;;;;;5069534;28;20041;-62
2022/05/15 07:08:46;;;;;;;17.58;5.38;;;14.30;99.90;;;;;;5048608;28;20123;-61
2022/05/15 07:11:12;;;;;;;17.75;5.78;;;14.40;99.90;;;;;;5056411;28;20044;-61
2022/05/15 07:13:39;;;;;;;15.32;5.15;;;14.40;99.90;;;;;;5071862;28;20115;-61
2022/05/15 07:16:04;;;;;;;18.10;6.03;;;14.70;99.90;;;;;;5053880;28;20493;-61
2022/05/15 07:18:31;;;;;;;19.35;5.97;;;14.70;99.90;;;;;;5054250;28;20043;-61
2022/05/15 07:20:56;;;;;;;20.08;6.97;;;15.20;99.90;;;;;;5070961;28;20098;-61
2022/05/15 07:23:23;;;;;;;18.40;6.97;;;14.70;99.90;;;;;;5072230;28;20079;-61
2022/05/15 07:25:49;;;;;;;17.25;5.70;;;15.00;99.90;;;;;;5054355;28;20500;-61
2022/05/15 07:28:16;;;;;;;19.55;6.00;;;15.20;99.90;;;;;;5059775;28;20037;-61
2022/05/15 07:30:42;;;;;;;20.75;6.43;;;15.30;99.90;;;;;;5071684;28;20128;-61
2022/05/15 07:33:08;;;;;;;17.13;5.57;;;15.80;99.90;;;;;;5053361;28;20049;-62
2022/05/15 07:35:37;;;;;;;15.80;5.10;;;;;;;;;;5071304;28;20048;-63
2022/05/15 07:38:03;;;;;;;19.30;6.03;;;;;;;;;;5053831;28;20514;-63
2022/05/15 07:40:29;;;;;;;17.23;6.28;;;;;;;;;;5071232;28;20492;-63
2022/05/15 07:42:55;;;;;;;14.88;5.25;;;;;;;;;;5051423;28;20057;-63
2022/05/15 07:45:21;;;;;;;17.23;5.93;;;;;;;;;;5053772;28;20045;-63
2022/05/15 07:47:47;;;;;;;16.75;5.63;;;;;;;;;;5053351;28;20072;-63
2022/05/15 07:50:14;;;;;;;18.90;5.75;;;;;;;;;;5053560;28;20094;-63
2022/05/15 07:52:40;;;;;;;16.75;5.47;;;;;;;;;;5053874;28;20047;-64
2022/05/15 07:55:06;;;;;;;17.27;6.53;;;;;;;;;;5052719;28;20040;-63
2022/05/15 07:57:36;;;;;;;17.10;5.43;;;;;;;;;;5053889;28;20068;-63
2022/05/15 08:00:05;;;;;;;12.80;5.03;;;;;;;;;;5071663;28;20047;-63
2022/05/15 08:02:31;;;;;;;20.83;5.68;;;;;;;;;;5070595;28;20106;-63
2022/05/15 08:08:01;;;;;;;21.58;5.90;;;;;;;;;;5053488;28;20109;-63
2022/05/15 08:10:28;;;;;;;18.15;5.38;;;;;;;;;;5072936;28;20041;-62
2022/05/15 08:12:54;;;;;;;17.33;4.85;;;;;;;;;;5057388;28;20047;-63
2022/05/15 08:15:21;;;;;;;19.33;6.18;;;;;;;;;;5040743;28;20036;-63
2022/05/15 08:17:46;;;;;;;21.30;5.80;;;16.60;99.90;;;;;;5074617;28;20043;-63
2022/05/15 08:23:34;;;;;;;14.25;4.95;;;17.10;99.90;;;;;;4977918;28;20516;-62
2022/05/15 08:26:00;;;;;;;22.45;5.63;;;17.10;99.90;;;;;;4987200;28;20049;-63
2022/05/15 08:28:26;;;;;;;12.52;3.83;;;17.00;99.90;;;;;;5013261;28;20109;-62
2022/05/15 08:30:53;;;;;;;12.65;4.95;;;17.20;99.90;;;;;;5056541;28;20047;-62
2022/05/15 08:33:18;;;;;;;19.45;5.50;;;17.20;99.90;;;;;;5075770;28;20041;-63
2022/05/15 08:35:44;;;;;;;14.48;4.78;;;;;;;;;;5095904;28;20051;-63
2022/05/15 08:38:10;;;;;;;20.83;5.45;;;17.40;99.90;;;;;;5065819;28;20051;-63
2022/05/15 08:41:05;;;;;;;18.73;5.72;;;;;;;;;;5075046;28;20040;-63
2022/05/15 08:43:46;;;;;;;13.77;4.50;;;;;;;;;;5041367;28;20051;-63
2022/05/15 08:46:27;;;;;;;18.98;4.90;;;17.70;99.90;;;;;;5072994;28;20508;-63
2022/05/15 08:49:11;;;;;;;12.73;4.25;;;17.80;99.90;;;;;;5056765;28;20051;-63
2022/05/15 08:51:42;;;;;;;16.33;4.95;;;17.80;99.90;;;;;;5056140;28;20051;-63
2022/05/15 08:54:10;;;;;;;14.75;5.10;;;17.70;99.90;;;;;;5056037;28;20082;-63
2022/05/15 08:56:44;;;;;;;17.70;5.43;;;17.70;99.90;;;;;;5074910;28;20057;-63
2022/05/15 08:59:25;;;;;;;18.67;5.40;;;17.70;99.90;;;;;;5055860;28;20461;-63
2022/05/15 09:01:53;;;;;;;15.40;5.07;;;17.70;99.90;;;;;;5074787;28;20348;-63
2022/05/15 09:04:19;;;;;;;16.30;5.03;;;17.80;99.90;;;;;;5056333;28;20049;-63
2022/05/15 09:07:09;;;;;;;18.33;5.03;;;18.00;99.90;;;;;;5073203;28;20135;-63
2022/05/15 09:10:09;;;;;;;15.50;4.97;;;18.10;99.90;;;;;;5075106;28;20037;-63
2022/05/15 09:12:37;;;;;;;13.90;5.07;;;18.10;99.90;;;;;;5041593;28;20052;-63
2022/05/15 09:15:24;;;;;;;17.30;5.47;;;18.00;99.90;;;;;;5056644;28;20044;-63
2022/05/15 09:17:58;;;;;;;17.08;4.97;;;18.00;99.90;;;;;;5056166;28;20406;-63
2022/05/15 09:20:24;;;;;;;19.17;5.05;;;18.00;99.90;;;;;;5055539;28;20119;-63
2022/05/15 09:23:13;;;;;;;14.85;4.88;;;18.10;99.90;;;;;;5073028;28;20131;-63
2022/05/15 09:25:39;;;;;;;15.25;4.40;;;18.10;99.90;;;;;;5039815;28;20052;-63
2022/05/15 09:28:12;;;;;;;17.50;5.25;;;18.20;99.90;;;;;;5054984;28;20042;-63
2022/05/15 09:30:47;;;;;;;18.20;4.57;;;18.30;99.90;;;;;;5056580;28;20051;-63
2022/05/15 09:33:22;;;;;;;16.52;5.35;;;;;;;;;;5054785;28;20084;-63
2022/05/15 09:35:48;;;;;;;15.30;5.60;;;;;;;;;;5074108;28;20045;-63
2022/05/15 09:38:29;;;;;;;13.50;4.55;;;;;;;;;;5073567;28;20037;-63
2022/05/15 09:43:51;;;;;;;18.60;5.00;;;18.70;99.90;;;;;;5056000;28;20040;-63
2022/05/15 09:46:19;;;;;;;13.20;5.05;;;18.70;99.90;;;;;;5056070;28;20048;-63
2022/05/15 09:49:20;;;;;;;13.57;4.63;;;18.70;99.90;;;;;;5054967;28;20082;-63
2022/05/15 09:51:49;;;;;;;16.58;4.32;;;18.80;99.90;;;;;;5073801;28;20033;-63
2022/05/15 09:54:50;;;;;;;11.48;4.82;;;18.80;99.90;;;;;;5073036;28;20128;-64
2022/05/15 09:57:28;;;;;;;21.73;5.35;;;19.00;99.90;;;;;;4956391;28;20047;-64
2022/05/15 09:59:59;;;;;;;14.82;4.80;;;19.00;99.70;;;;;;5058492;28;20049;-64
2022/05/15 10:02:27;;;;;;;16.88;4.75;;;;;;;;;;5054624;28;20048;-63
2022/05/15 10:04:54;;;;;;;12.07;4.47;;;;;;;;;;5070017;28;20047;-64
2022/05/15 10:07:29;;;;;;;14.43;4.25;;;;;;;;;;5072911;28;20040;-64
2022/05/15 10:09:55;;;;;;;15.25;5.68;;;;;;;;;;5072363;28;20037;-64
2022/05/15 10:12:26;;;;;;;12.73;4.55;;;;;;;;;;5073054;28;20131;-64
2022/05/15 10:14:54;;;;;;;17.23;5.50;;;;;;;;;;5055158;28;20497;-64
2022/05/15 10:17:21;;;;;;;14.98;4.65;;;;;;;;;;5054154;28;20051;-64
2022/05/15 10:19:47;;;;;;;17.45;4.85;;;;;;;;;;5055195;28;20048;-64
2022/05/15 10:22:23;;;;;;;11.50;4.13;;;;;;;;;;5054646;28;20498;-64
2022/05/15 10:24:50;;;;;;;17.45;5.75;;;;;;;;;;5054706;28;20095;-64
2022/05/15 10:27:22;;;;;;;13.35;4.47;;;;;;;;;;5072938;28;20039;-64
2022/05/15 10:30:05;;;;;;;13.18;4.95;;;;;;;;;;5053488;28;20456;-64
2022/05/15 10:32:34;;;;;;;13.63;4.63;;;;;;;;;;5072517;28;20109;-64
2022/05/15 10:35:00;;;;;;;20.48;5.25;;;;;;;;;;5054977;28;20128;-64
2022/05/15 10:37:26;;;;;;;14.30;4.45;;;;;;;;;;5071916;28;20047;-64
2022/05/15 10:39:55;;;;;;;16.00;5.97;;;;;;;;;;5038202;28;20120;-64
2022/05/15 10:42:24;;;;;;;12.95;4.28;;;;;;;;;;5072663;28;20090;-64
2022/05/15 10:45:09;;;;;;;17.05;5.10;;;;;;;;;;5071888;28;20075;-64
2022/05/15 10:47:34;;;;;;;14.73;4.78;;;;;;;;;;5054454;28;20123;-64
2022/05/15 10:50:18;;;;;;;10.63;4.63;;;;;;;;;;5071754;28;20119;-64
2022/05/15 10:52:50;;;;;;;14.68;4.75;;;;;;;;;;5054135;28;20076;-64
2022/05/15 10:58:08;;;;;;;12.43;4.43;;;;;;;;;;5071860;28;20505;-64
2022/05/15 11:00:46;;;;;;;14.88;5.38;;;19.90;96.80;;;;;;5054854;28;20599;-64
2022/05/15 11:03:24;;;;;;;14.00;5.15;;;19.90;95.60;;;;;;5048993;28;20504;-64
2022/05/15 11:06:07;;;;;;;14.75;5.15;;;19.90;95.70;;;;;;5071689;28;20056;-64
2022/05/15 11:08:52;;;;;;;15.18;4.40;;;20.00;95.70;;;;;;5053401;28;20043;-64
2022/05/15 11:11:20;;;;;;;15.25;4.45;;;20.00;95.00;;;;;;5054402;28;20063;-64
2022/05/15 11:14:38;;;;;;;13.90;4.80;;;20.00;94.00;;;;;;5053400;28;20044;-64
2022/05/15 11:17:07;;;;;;;15.90;4.63;;;20.10;93.90;;;;;;4991470;28;20048;-64
2022/05/15 11:19:36;;;;;;;16.80;5.28;;;20.10;94.30;;;;;;5071620;28;20050;-64
2022/05/15 11:22:40;;;;;;;17.50;5.88;;;20.20;94.60;;;;;;5054223;28;20056;-64
2022/05/15 11:25:42;;;;;;;13.93;4.20;;;20.30;93.30;;;;;;5028277;28;20117;-65
2022/05/15 11:28:31;;;;;;;18.70;4.97;;;20.40;93.40;;;;;;5003255;28;20056;-63
2022/05/15 11:31:09;;;;;;;18.27;6.15;;;21.20;99.90;;;;;;5043541;28;20136;-65
2022/05/15 11:33:44;;;;;;;18.35;5.90;;;;;;;;;;5036940;28;20036;-65
2022/05/15 11:36:12;;;;;;;13.45;4.93;;;;;;;;;;5071705;28;20033;-65
2022/05/15 11:38:46;;;;;;;11.98;4.18;;;;;;;;;;5054711;28;20094;-65
2022/05/15 11:41:32;;;;;;;10.25;3.67;;;;;;;;;;5071047;28;20068;-65
2022/05/15 11:43:59;;;;;;;12.93;4.13;;;;;;;;;;5054318;28;20046;-65
2022/05/15 11:46:44;;;;;;;12.73;3.40;;;;;;;;;;5070685;28;20040;-64
2022/05/15 11:49:10;;;;;;;;;;;;;;;;;;5070903;28;20404;-65
2022/05/15 11:51:42;;;;;;;11.20;3.97;;;;;;;;;;5071282;28;19955;-65
2022/05/15 11:54:10;;;;;;;13.23;4.13;;;;;;;;;;5070775;28;20086;-65
2022/05/15 11:56:54;;;;;;;14.70;4.30;;;;;;;;;;5071876;28;20062;-65
2022/05/15 11:59:21;;;;;;;12.18;4.65;;;20.90;90.10;;;;;;5071748;28;20454;-64
2022/05/15 12:01:57;;;;;;;13.57;4.63;;;20.90;88.80;;;;;;5053272;28;20048;-65
2022/05/15 12:04:34;;;;;;;13.35;3.95;;;21.00;87.70;;;;;;5071458;28;20128;-65
2022/05/15 12:07:00;;;;;;;11.38;3.90;;;21.10;86.90;;;;;;5053940;28;20210;-64
2022/05/15 12:09:40;;;;;;;10.10;3.45;;;21.20;84.80;;;;;;5071018;28;20135;-64
2022/05/15 12:15:12;;;;;;;12.90;3.83;;;21.10;84.60;;;;;;5053836;28;20052;-65
2022/05/15 12:17:44;;;;;;;10.52;3.70;;;21.20;87.10;;;;;;5054222;28;20486;-65
2022/05/15 12:20:34;;;;;;;13.45;4.43;;;21.20;86.00;;;;;;5071029;28;20060;-65
2022/05/15 12:23:11;;;;;;;9.40;3.45;;;21.40;84.60;;;;;;5070773;28;20091;-65
2022/05/15 12:25:59;;;;;;;8.90;3.58;;;21.40;83.20;;;;;;5053838;28;20053;-65
2022/05/15 12:31:16;;;;;;;10.07;3.53;;;21.40;80.80;;;;;;5052439;28;20068;-65
2022/05/15 12:33:43;;;;;;;11.02;4.18;;;21.40;79.30;;;;;;5053784;28;20075;-65
2022/05/15 12:36:31;;;;;;;10.57;3.08;;;21.50;79.10;;;;;;5052242;28;20056;-65
2022/05/15 12:38:57;;;;;;;12.60;3.95;;;21.60;82.00;;;;;;5053413;28;20489;-65
2022/05/15 12:41:27;;;;;;;12.85;3.55;;;21.70;86.30;;;;;;5053306;28;20078;-65
2022/05/15 12:43:53;;;;;;;10.90;3.40;;;21.60;89.30;;;;;;5052534;28;20041;-65
2022/05/15 12:46:33;;;;;;;10.15;3.05;;;21.50;90.40;;;;;;5053157;28;20123;-65
2022/05/15 12:48:59;;;;;;;10.10;3.15;;;21.50;92.50;;;;;;5071421;28;20036;-65
2022/05/15 12:51:37;;;;;;;13.98;4.30;;;21.40;93.70;;;;;;5070506;28;20082;-65
2022/05/15 12:54:19;;;;;;;9.75;4.28;;;21.40;95.10;;;;;;5071299;28;20051;-65
2022/05/15 12:56:45;;;;;;;10.95;3.58;;;21.40;95.30;;;;;;5037712;28;20040;-65
2022/05/15 12:59:18;;;;;;;15.13;4.40;;;21.10;96.50;;;;;;5055736;28;20041;-65
2022/05/15 13:01:45;;;;;;;14.95;4.68;;;21.00;97.80;;;;;;5075170;28;20393;-65
2022/05/15 13:04:18;;;;;;;13.93;5.00;;;20.90;98.60;;;;;;5038974;28;20481;-65
2022/05/15 13:06:52;;;;;;;11.02;5.03;;;21.00;99.70;;;;;;5040366;28;20040;-65
2022/05/15 13:09:21;;;;;;;14.35;5.18;;;20.90;99.80;;;;;;5074410;28;20432;-65
2022/05/15 13:11:51;;;;;;;16.15;5.10;;;20.80;99.90;;;;;;5056128;28;20048;-65
2022/05/15 13:14:27;;;;;;;15.07;4.55;;;20.90;99.90;;;;;;5074486;28;20382;-65
2022/05/15 13:16:54;;;;;;;12.88;3.63;;;21.00;99.90;;;;;;5074392;28;20051;-65
2022/05/15 13:19:31;;;;;;;14.77;4.72;;;21.00;99.90;;;;;;5073280;28;20045;-65
2022/05/15 13:21:58;;;;;;;11.43;4.72;;;21.00;99.90;;;;;;5056107;28;20131;-65
2022/05/15 13:24:25;;;;;;;14.85;6.18;;;21.00;99.90;;;;;;5074321;28;20037;-65
2022/05/15 13:26:52;;;;;;;13.23;5.82;;;21.20;99.90;;;;;;5073401;28;20045;-66
2022/05/15 13:29:22;;;;;;;14.43;3.95;;;21.20;99.90;;;;;;5056419;28;20401;-65
2022/05/15 13:31:49;;;;;;;9.05;3.65;;;21.30;99.90;;;;;;5074463;28;20043;-65
2022/05/15 13:34:24;;;;;;;13.18;4.55;;;21.30;99.80;;;;;;5055609;28;20052;-65
2022/05/15 13:37:04;;;;;;;19.40;5.35;;;21.30;99.60;;;;;;5056164;28;20048;-65
2022/05/15 13:45:16;;;;;;;8.48;3.90;;;;;;;;;;5073740;28;20041;-65
2022/05/15 13:48:01;;;;;;;9.70;3.20;;;;;;;;;;5073316;28;20041;-65
2022/05/15 13:50:32;;;;;;;12.00;4.47;;;21.10;99.90;;;;;;5056081;28;20067;-64